sensor_id;sensor_type;location;lat;lon;timestamp;temperature;humidity
324;DHT22;149;51.094;17.002;2023-05-16T00:02:26;10.40;99.90
324;DHT22;149;51.094;17.002;2023-05-16T00:04:53;10.50;99.90
324;DHT22;149;51.094;17.002;2023-05-16T00:07:21;10.40;99.90
324;DHT22;149;51.094;17.002;2023-05-16T00:10:07;10.60;99.90
324;DHT22;149;51.094;17.002;2023-05-16T00:12:35;10.60;99.90
324;DHT22;149;51.094;17.002;2023-05-16T00:15:06;10.50;99.90
324;DHT22;149;51.094;17.002;2023-05-16T00:17:50;10.60;99.90
324;DHT22;149;51.094;17.002;2023-05-16T00:20:17;10.60;99.90
324;DHT22;149;51.094;17.002;2023-05-16T00:23:28;10.50;99.90
324;DHT22;149;51.094;17.002;2023-05-16T00:25:48;10.70;99.90
324;DHT22;149;51.094;17.002;2023-05-16T00:28:15;10.70;99.90
324;DHT22;149;51.094;17.002;2023-05-16T00:30:42;10.80;99.90
324;DHT22;149;51.094;17.002;2023-05-16T00:33:09;10.70;99.90
324;DHT22;149;51.094;17.002;2023-05-16T00:35:37;10.80;99.90
324;DHT22;149;51.094;17.002;2023-05-16T00:38:05;10.70;99.90
324;DHT22;149;51.094;17.002;2023-05-16T00:40:32;10.80;99.90
324;DHT22;149;51.094;17.002;2023-05-16T00:42:59;10.70;99.90
324;DHT22;149;51.094;17.002;2023-05-16T00:45:26;10.80;99.90
324;DHT22;149;51.094;17.002;2023-05-16T00:47:55;10.80;99.90
324;DHT22;149;51.094;17.002;2023-05-16T00:50:25;10.70;99.90
324;DHT22;149;51.094;17.002;2023-05-16T00:52:52;10.60;99.90
324;DHT22;149;51.094;17.002;2023-05-16T00:55:19;10.60;99.90
324;DHT22;149;51.094;17.002;2023-05-16T00:57:46;10.60;99.90
324;DHT22;149;51.094;17.002;2023-05-16T01:00:13;10.70;99.90
324;DHT22;149;51.094;17.002;2023-05-16T01:02:41;10.60;99.90
324;DHT22;149;51.094;17.002;2023-05-16T01:05:08;10.80;99.90
324;DHT22;149;51.094;17.002;2023-05-16T01:07:38;10.70;99.90
324;DHT22;149;51.094;17.002;2023-05-16T01:10:06;10.80;99.90
324;DHT22;149;51.094;17.002;2023-05-16T01:12:47;10.60;99.90
324;DHT22;149;51.094;17.002;2023-05-16T01:15:27;10.70;99.90
324;DHT22;149;51.094;17.002;2023-05-16T01:20:52;10.80;99.90
324;DHT22;149;51.094;17.002;2023-05-16T01:26:27;10.60;99.90
324;DHT22;149;51.094;17.002;2023-05-16T01:28:54;10.50;99.90
324;DHT22;149;51.094;17.002;2023-05-16T01:31:23;10.70;99.90
324;DHT22;149;51.094;17.002;2023-05-16T01:33:50;10.70;99.90
324;DHT22;149;51.094;17.002;2023-05-16T01:36:28;10.30;99.90
324;DHT22;149;51.094;17.002;2023-05-16T01:44:45;10.10;99.90
324;DHT22;149;51.094;17.002;2023-05-16T01:47:12;10.20;99.90
324;DHT22;149;51.094;17.002;2023-05-16T01:49:45;10.20;99.90
324;DHT22;149;51.094;17.002;2023-05-16T01:52:21;10.10;99.90
324;DHT22;149;51.094;17.002;2023-05-16T01:54:52;10.30;99.90
324;DHT22;149;51.094;17.002;2023-05-16T01:57:24;10.30;99.90
324;DHT22;149;51.094;17.002;2023-05-16T01:59:52;10.30;99.90
324;DHT22;149;51.094;17.002;2023-05-16T02:02:19;10.30;99.90
324;DHT22;149;51.094;17.002;2023-05-16T02:04:46;10.30;99.90
324;DHT22;149;51.094;17.002;2023-05-16T02:07:13;10.40;99.90
324;DHT22;149;51.094;17.002;2023-05-16T02:09:40;10.30;99.90
324;DHT22;149;51.094;17.002;2023-05-16T02:12:08;10.20;99.90
324;DHT22;149;51.094;17.002;2023-05-16T02:14:35;10.10;99.90
324;DHT22;149;51.094;17.002;2023-05-16T02:17:01;10.10;99.90
324;DHT22;149;51.094;17.002;2023-05-16T02:19:29;10.00;99.90
324;DHT22;149;51.094;17.002;2023-05-16T02:21:56;10.10;99.90
324;DHT22;149;51.094;17.002;2023-05-16T02:24:23;10.10;99.90
324;DHT22;149;51.094;17.002;2023-05-16T02:26:50;10.10;99.90
324;DHT22;149;51.094;17.002;2023-05-16T02:29:17;10.30;99.90
324;DHT22;149;51.094;17.002;2023-05-16T02:31:44;10.40;99.90
324;DHT22;149;51.094;17.002;2023-05-16T02:34:11;10.50;99.90
324;DHT22;149;51.094;17.002;2023-05-16T02:36:38;10.50;99.90
324;DHT22;149;51.094;17.002;2023-05-16T02:39:05;10.40;99.90
324;DHT22;149;51.094;17.002;2023-05-16T02:41:34;10.40;99.90
324;DHT22;149;51.094;17.002;2023-05-16T02:44:01;10.40;99.90
324;DHT22;149;51.094;17.002;2023-05-16T02:46:32;10.40;99.90
324;DHT22;149;51.094;17.002;2023-05-16T02:48:59;10.30;99.90
324;DHT22;149;51.094;17.002;2023-05-16T02:51:27;10.30;99.90
324;DHT22;149;51.094;17.002;2023-05-16T02:53:55;10.30;99.90
324;DHT22;149;51.094;17.002;2023-05-16T02:56:28;10.30;99.90
324;DHT22;149;51.094;17.002;2023-05-16T02:58:55;10.30;99.90
324;DHT22;149;51.094;17.002;2023-05-16T03:01:22;10.20;99.90
324;DHT22;149;51.094;17.002;2023-05-16T03:03:51;10.20;99.90
324;DHT22;149;51.094;17.002;2023-05-16T03:06:18;10.40;99.90
324;DHT22;149;51.094;17.002;2023-05-16T03:08:46;10.30;99.90
324;DHT22;149;51.094;17.002;2023-05-16T03:11:14;10.20;99.90
324;DHT22;149;51.094;17.002;2023-05-16T03:13:42;10.20;99.90
324;DHT22;149;51.094;17.002;2023-05-16T03:16:09;10.30;99.90
324;DHT22;149;51.094;17.002;2023-05-16T03:18:36;10.20;99.90
324;DHT22;149;51.094;17.002;2023-05-16T03:21:03;10.20;99.90
324;DHT22;149;51.094;17.002;2023-05-16T03:23:30;10.20;99.90
324;DHT22;149;51.094;17.002;2023-05-16T03:25:57;10.50;99.90
324;DHT22;149;51.094;17.002;2023-05-16T03:28:26;10.50;99.90
324;DHT22;149;51.094;17.002;2023-05-16T03:30:53;10.60;99.90
324;DHT22;149;51.094;17.002;2023-05-16T03:33:20;10.60;99.90
324;DHT22;149;51.094;17.002;2023-05-16T03:35:47;10.70;99.90
324;DHT22;149;51.094;17.002;2023-05-16T03:38:14;10.80;99.90
324;DHT22;149;51.094;17.002;2023-05-16T03:40:41;11.10;99.90
324;DHT22;149;51.094;17.002;2023-05-16T03:43:08;11.30;99.90
324;DHT22;149;51.094;17.002;2023-05-16T03:45:35;11.30;99.90
324;DHT22;149;51.094;17.002;2023-05-16T03:48:01;11.30;99.90
324;DHT22;149;51.094;17.002;2023-05-16T03:50:29;11.30;99.90
324;DHT22;149;51.094;17.002;2023-05-16T03:52:56;11.40;99.90
324;DHT22;149;51.094;17.002;2023-05-16T03:55:23;11.50;99.90
324;DHT22;149;51.094;17.002;2023-05-16T03:57:51;11.40;99.90
324;DHT22;149;51.094;17.002;2023-05-16T04:00:18;11.40;99.90
324;DHT22;149;51.094;17.002;2023-05-16T04:02:47;11.50;99.90
324;DHT22;149;51.094;17.002;2023-05-16T04:05:15;11.60;99.90
324;DHT22;149;51.094;17.002;2023-05-16T04:07:42;11.80;99.90
324;DHT22;149;51.094;17.002;2023-05-16T04:10:09;11.70;99.90
324;DHT22;149;51.094;17.002;2023-05-16T04:12:36;11.90;99.90
324;DHT22;149;51.094;17.002;2023-05-16T04:15:04;11.90;99.90
324;DHT22;149;51.094;17.002;2023-05-16T04:17:33;11.90;99.90
324;DHT22;149;51.094;17.002;2023-05-16T04:20:00;12.00;99.90
324;DHT22;149;51.094;17.002;2023-05-16T04:22:27;12.00;99.90
324;DHT22;149;51.094;17.002;2023-05-16T04:24:54;12.10;99.90
324;DHT22;149;51.094;17.002;2023-05-16T04:27:21;12.30;99.90
324;DHT22;149;51.094;17.002;2023-05-16T04:29:49;12.40;99.90
324;DHT22;149;51.094;17.002;2023-05-16T04:32:16;12.40;99.90
324;DHT22;149;51.094;17.002;2023-05-16T04:34:43;12.20;99.90
324;DHT22;149;51.094;17.002;2023-05-16T04:37:12;12.30;99.90
324;DHT22;149;51.094;17.002;2023-05-16T04:39:39;12.40;99.90
324;DHT22;149;51.094;17.002;2023-05-16T04:42:06;12.40;99.90
324;DHT22;149;51.094;17.002;2023-05-16T04:44:33;12.50;99.90
324;DHT22;149;51.094;17.002;2023-05-16T04:47:00;12.50;99.90
324;DHT22;149;51.094;17.002;2023-05-16T04:49:27;12.60;99.90
324;DHT22;149;51.094;17.002;2023-05-16T04:51:54;12.70;99.90
324;DHT22;149;51.094;17.002;2023-05-16T04:54:21;12.90;99.90
324;DHT22;149;51.094;17.002;2023-05-16T04:56:48;12.90;99.90
324;DHT22;149;51.094;17.002;2023-05-16T04:59:15;13.10;99.90
324;DHT22;149;51.094;17.002;2023-05-16T05:01:43;13.20;99.90
324;DHT22;149;51.094;17.002;2023-05-16T05:04:10;13.20;99.90
324;DHT22;149;51.094;17.002;2023-05-16T05:06:37;13.30;99.90
324;DHT22;149;51.094;17.002;2023-05-16T05:09:04;13.40;99.90
324;DHT22;149;51.094;17.002;2023-05-16T05:11:31;13.60;99.90
324;DHT22;149;51.094;17.002;2023-05-16T05:13:59;13.50;99.90
324;DHT22;149;51.094;17.002;2023-05-16T05:16:26;13.70;99.90
324;DHT22;149;51.094;17.002;2023-05-16T05:18:52;13.90;99.90
324;DHT22;149;51.094;17.002;2023-05-16T05:21:19;14.20;99.90
324;DHT22;149;51.094;17.002;2023-05-16T05:23:48;14.30;99.90
324;DHT22;149;51.094;17.002;2023-05-16T05:26:15;14.40;99.90
324;DHT22;149;51.094;17.002;2023-05-16T05:28:42;14.40;99.90
324;DHT22;149;51.094;17.002;2023-05-16T05:31:19;14.50;99.90
324;DHT22;149;51.094;17.002;2023-05-16T05:33:47;14.70;99.90
324;DHT22;149;51.094;17.002;2023-05-16T05:36:15;15.00;99.90
324;DHT22;149;51.094;17.002;2023-05-16T05:38:42;15.10;99.90
324;DHT22;149;51.094;17.002;2023-05-16T05:41:09;15.10;99.90
324;DHT22;149;51.094;17.002;2023-05-16T05:43:37;15.10;99.90
324;DHT22;149;51.094;17.002;2023-05-16T05:46:04;15.20;99.90
324;DHT22;149;51.094;17.002;2023-05-16T05:48:31;15.30;99.90
324;DHT22;149;51.094;17.002;2023-05-16T05:50:58;15.40;99.90
324;DHT22;149;51.094;17.002;2023-05-16T05:53:25;15.60;99.90
324;DHT22;149;51.094;17.002;2023-05-16T05:55:52;15.70;99.90
324;DHT22;149;51.094;17.002;2023-05-16T05:58:22;15.70;99.90
324;DHT22;149;51.094;17.002;2023-05-16T06:00:49;15.70;99.90
324;DHT22;149;51.094;17.002;2023-05-16T06:03:17;15.80;99.90
324;DHT22;149;51.094;17.002;2023-05-16T06:05:44;16.10;99.90
324;DHT22;149;51.094;17.002;2023-05-16T06:08:11;16.10;99.90
324;DHT22;149;51.094;17.002;2023-05-16T06:10:38;16.20;99.90
324;DHT22;149;51.094;17.002;2023-05-16T06:13:05;16.50;99.90
324;DHT22;149;51.094;17.002;2023-05-16T06:15:32;17.00;99.90
324;DHT22;149;51.094;17.002;2023-05-16T06:17:59;17.50;99.90
324;DHT22;149;51.094;17.002;2023-05-16T06:20:29;17.60;99.90
324;DHT22;149;51.094;17.002;2023-05-16T06:22:56;17.90;99.90
324;DHT22;149;51.094;17.002;2023-05-16T06:25:25;18.10;99.90
324;DHT22;149;51.094;17.002;2023-05-16T06:27:52;18.10;99.90
324;DHT22;149;51.094;17.002;2023-05-16T06:30:19;18.40;99.90
324;DHT22;149;51.094;17.002;2023-05-16T06:32:46;18.70;99.90
324;DHT22;149;51.094;17.002;2023-05-16T06:35:13;18.70;99.90
324;DHT22;149;51.094;17.002;2023-05-16T06:37:40;19.00;99.90
324;DHT22;149;51.094;17.002;2023-05-16T06:40:09;18.60;99.90
324;DHT22;149;51.094;17.002;2023-05-16T06:42:36;18.50;99.90
324;DHT22;149;51.094;17.002;2023-05-16T06:45:06;18.70;99.90
324;DHT22;149;51.094;17.002;2023-05-16T06:47:33;19.00;99.90
324;DHT22;149;51.094;17.002;2023-05-16T06:50:01;19.30;99.90
324;DHT22;149;51.094;17.002;2023-05-16T06:52:28;19.70;99.90
324;DHT22;149;51.094;17.002;2023-05-16T06:54:57;20.10;99.90
324;DHT22;149;51.094;17.002;2023-05-16T06:57:25;20.30;99.90
324;DHT22;149;51.094;17.002;2023-05-16T06:59:52;20.20;99.90
324;DHT22;149;51.094;17.002;2023-05-16T07:02:24;20.30;99.90
324;DHT22;149;51.094;17.002;2023-05-16T07:04:51;21.00;99.90
324;DHT22;149;51.094;17.002;2023-05-16T07:07:18;21.50;99.90
324;DHT22;149;51.094;17.002;2023-05-16T07:09:46;21.90;99.90
324;DHT22;149;51.094;17.002;2023-05-16T07:12:13;21.60;99.90
324;DHT22;149;51.094;17.002;2023-05-16T07:14:40;21.90;99.90
324;DHT22;149;51.094;17.002;2023-05-16T07:17:10;23.10;99.90
324;DHT22;149;51.094;17.002;2023-05-16T07:19:37;24.00;99.90
324;DHT22;149;51.094;17.002;2023-05-16T07:22:05;25.00;99.90
324;DHT22;149;51.094;17.002;2023-05-16T07:24:32;25.90;99.90
324;DHT22;149;51.094;17.002;2023-05-16T07:27:01;26.80;99.90
324;DHT22;149;51.094;17.002;2023-05-16T07:29:27;27.10;99.90
324;DHT22;149;51.094;17.002;2023-05-16T07:31:56;26.40;99.90
324;DHT22;149;51.094;17.002;2023-05-16T07:34:23;26.80;99.90
324;DHT22;149;51.094;17.002;2023-05-16T07:36:52;27.30;99.90
324;DHT22;149;51.094;17.002;2023-05-16T07:39:19;26.70;99.90
324;DHT22;149;51.094;17.002;2023-05-16T07:41:46;26.00;99.90
324;DHT22;149;51.094;17.002;2023-05-16T07:44:13;25.00;99.90
324;DHT22;149;51.094;17.002;2023-05-16T07:46:40;24.10;99.90
324;DHT22;149;51.094;17.002;2023-05-16T07:49:11;24.30;99.90
324;DHT22;149;51.094;17.002;2023-05-16T07:51:40;23.80;99.90
324;DHT22;149;51.094;17.002;2023-05-16T07:54:10;24.40;99.90
324;DHT22;149;51.094;17.002;2023-05-16T07:56:37;25.00;99.90
324;DHT22;149;51.094;17.002;2023-05-16T07:59:04;24.60;99.90
324;DHT22;149;51.094;17.002;2023-05-16T08:01:31;23.90;99.90
324;DHT22;149;51.094;17.002;2023-05-16T08:03:59;24.00;99.90
324;DHT22;149;51.094;17.002;2023-05-16T08:06:26;23.90;99.90
324;DHT22;149;51.094;17.002;2023-05-16T08:08:53;23.20;99.90
324;DHT22;149;51.094;17.002;2023-05-16T08:11:20;22.50;99.90
324;DHT22;149;51.094;17.002;2023-05-16T08:13:48;22.10;99.90
324;DHT22;149;51.094;17.002;2023-05-16T08:16:15;21.50;99.90
324;DHT22;149;51.094;17.002;2023-05-16T08:18:42;21.40;99.90
324;DHT22;149;51.094;17.002;2023-05-16T08:21:09;21.20;99.90
324;DHT22;149;51.094;17.002;2023-05-16T08:23:37;21.00;99.90
324;DHT22;149;51.094;17.002;2023-05-16T08:26:04;20.40;99.90
324;DHT22;149;51.094;17.002;2023-05-16T08:28:31;20.60;99.90
324;DHT22;149;51.094;17.002;2023-05-16T08:30:58;21.60;99.90
324;DHT22;149;51.094;17.002;2023-05-16T08:33:25;21.90;99.90
324;DHT22;149;51.094;17.002;2023-05-16T08:35:52;22.40;99.90
324;DHT22;149;51.094;17.002;2023-05-16T08:38:19;22.30;99.90
324;DHT22;149;51.094;17.002;2023-05-16T08:40:46;22.30;99.90
324;DHT22;149;51.094;17.002;2023-05-16T08:43:13;21.30;99.90
324;DHT22;149;51.094;17.002;2023-05-16T08:45:40;20.60;99.90
324;DHT22;149;51.094;17.002;2023-05-16T08:48:09;22.20;99.90
324;DHT22;149;51.094;17.002;2023-05-16T08:50:37;25.60;99.90
324;DHT22;149;51.094;17.002;2023-05-16T08:53:06;25.90;99.90
324;DHT22;149;51.094;17.002;2023-05-16T08:55:35;24.70;99.90
324;DHT22;149;51.094;17.002;2023-05-16T08:58:05;25.50;99.90
324;DHT22;149;51.094;17.002;2023-05-16T09:00:32;25.00;99.90
324;DHT22;149;51.094;17.002;2023-05-16T09:03:00;23.90;99.90
324;DHT22;149;51.094;17.002;2023-05-16T09:05:34;23.60;99.90
324;DHT22;149;51.094;17.002;2023-05-16T09:08:02;23.20;99.90
324;DHT22;149;51.094;17.002;2023-05-16T09:10:29;22.70;99.90
324;DHT22;149;51.094;17.002;2023-05-16T09:12:56;22.60;99.90
324;DHT22;149;51.094;17.002;2023-05-16T09:15:30;22.20;99.90
324;DHT22;149;51.094;17.002;2023-05-16T09:18:01;22.70;99.90
324;DHT22;149;51.094;17.002;2023-05-16T09:20:30;24.90;99.90
324;DHT22;149;51.094;17.002;2023-05-16T09:22:58;25.70;99.90
324;DHT22;149;51.094;17.002;2023-05-16T09:25:29;24.90;99.90
324;DHT22;149;51.094;17.002;2023-05-16T09:27:59;24.20;99.90
324;DHT22;149;51.094;17.002;2023-05-16T09:30:32;23.10;99.90
324;DHT22;149;51.094;17.002;2023-05-16T09:33:00;22.10;99.90
324;DHT22;149;51.094;17.002;2023-05-16T09:35:28;21.90;99.90
324;DHT22;149;51.094;17.002;2023-05-16T09:37:58;22.20;99.90
324;DHT22;149;51.094;17.002;2023-05-16T09:40:25;22.90;99.90
324;DHT22;149;51.094;17.002;2023-05-16T09:43:03;23.20;99.90
324;DHT22;149;51.094;17.002;2023-05-16T09:45:31;23.50;99.90
324;DHT22;149;51.094;17.002;2023-05-16T09:48:07;23.70;99.90
324;DHT22;149;51.094;17.002;2023-05-16T09:50:36;23.40;99.90
324;DHT22;149;51.094;17.002;2023-05-16T09:53:04;23.50;99.90
324;DHT22;149;51.094;17.002;2023-05-16T09:55:31;23.20;99.90
324;DHT22;149;51.094;17.002;2023-05-16T09:57:58;22.40;99.90
324;DHT22;149;51.094;17.002;2023-05-16T10:00:30;22.00;99.90
324;DHT22;149;51.094;17.002;2023-05-16T10:03:00;22.20;99.90
324;DHT22;149;51.094;17.002;2023-05-16T10:05:31;22.20;99.90
324;DHT22;149;51.094;17.002;2023-05-16T10:07:58;21.90;99.90
324;DHT22;149;51.094;17.002;2023-05-16T10:10:35;21.60;99.90
324;DHT22;149;51.094;17.002;2023-05-16T10:13:04;21.70;99.90
324;DHT22;149;51.094;17.002;2023-05-16T10:15:35;22.10;99.90
324;DHT22;149;51.094;17.002;2023-05-16T10:18:03;22.50;99.90
324;DHT22;149;51.094;17.002;2023-05-16T10:20:34;22.80;99.90
324;DHT22;149;51.094;17.002;2023-05-16T10:23:02;23.10;99.90
324;DHT22;149;51.094;17.002;2023-05-16T10:25:39;23.10;99.90
324;DHT22;149;51.094;17.002;2023-05-16T10:28:10;23.20;99.90
324;DHT22;149;51.094;17.002;2023-05-16T10:30:40;23.60;99.90
324;DHT22;149;51.094;17.002;2023-05-16T10:33:15;23.40;99.90
324;DHT22;149;51.094;17.002;2023-05-16T10:35:43;22.90;99.90
324;DHT22;149;51.094;17.002;2023-05-16T10:38:14;22.70;99.90
324;DHT22;149;51.094;17.002;2023-05-16T10:40:42;22.70;99.90
324;DHT22;149;51.094;17.002;2023-05-16T10:43:09;22.40;99.90
324;DHT22;149;51.094;17.002;2023-05-16T10:45:40;22.20;99.90
324;DHT22;149;51.094;17.002;2023-05-16T10:48:11;22.50;99.90
324;DHT22;149;51.094;17.002;2023-05-16T10:50:43;22.50;99.90
324;DHT22;149;51.094;17.002;2023-05-16T10:53:22;22.60;99.90
324;DHT22;149;51.094;17.002;2023-05-16T10:56:05;22.60;99.90
324;DHT22;149;51.094;17.002;2023-05-16T11:11:52;22.20;99.90
324;DHT22;149;51.094;17.002;2023-05-16T11:14:25;22.50;99.90
324;DHT22;149;51.094;17.002;2023-05-16T11:19:40;22.50;99.90
324;DHT22;149;51.094;17.002;2023-05-16T11:24:54;22.10;99.90
324;DHT22;149;51.094;17.002;2023-05-16T11:27:33;22.00;99.90
324;DHT22;149;51.094;17.002;2023-05-16T11:30:11;21.80;99.90
324;DHT22;149;51.094;17.002;2023-05-16T11:32:41;22.20;99.90
324;DHT22;149;51.094;17.002;2023-05-16T11:35:11;22.30;99.90
324;DHT22;149;51.094;17.002;2023-05-16T11:37:41;22.40;99.90
324;DHT22;149;51.094;17.002;2023-05-16T11:40:09;21.70;99.90
324;DHT22;149;51.094;17.002;2023-05-16T11:42:41;21.50;99.90
324;DHT22;149;51.094;17.002;2023-05-16T11:45:10;21.60;99.90
324;DHT22;149;51.094;17.002;2023-05-16T11:47:42;21.40;99.90
324;DHT22;149;51.094;17.002;2023-05-16T11:50:12;21.40;99.90
324;DHT22;149;51.094;17.002;2023-05-16T11:52:43;21.40;99.90
324;DHT22;149;51.094;17.002;2023-05-16T11:55:12;21.60;99.90
324;DHT22;149;51.094;17.002;2023-05-16T11:57:58;21.20;99.90
324;DHT22;149;51.094;17.002;2023-05-16T12:00:26;20.50;99.90
324;DHT22;149;51.094;17.002;2023-05-16T12:03:01;20.20;99.90
324;DHT22;149;51.094;17.002;2023-05-16T12:05:31;19.90;99.90
324;DHT22;149;51.094;17.002;2023-05-16T12:08:00;19.80;99.90
324;DHT22;149;51.094;17.002;2023-05-16T12:10:30;19.90;99.90
324;DHT22;149;51.094;17.002;2023-05-16T12:13:03;19.80;99.90
324;DHT22;149;51.094;17.002;2023-05-16T12:15:30;19.90;99.90
324;DHT22;149;51.094;17.002;2023-05-16T12:17:57;19.80;99.90
324;DHT22;149;51.094;17.002;2023-05-16T12:20:25;19.90;99.90
324;DHT22;149;51.094;17.002;2023-05-16T12:22:52;19.80;99.90
324;DHT22;149;51.094;17.002;2023-05-16T12:25:26;19.90;99.90
324;DHT22;149;51.094;17.002;2023-05-16T12:27:55;19.60;99.90
324;DHT22;149;51.094;17.002;2023-05-16T12:30:25;19.40;99.90
324;DHT22;149;51.094;17.002;2023-05-16T12:33:11;19.40;99.90
324;DHT22;149;51.094;17.002;2023-05-16T12:35:45;19.40;99.90
324;DHT22;149;51.094;17.002;2023-05-16T12:38:14;19.60;99.90
324;DHT22;149;51.094;17.002;2023-05-16T12:40:43;19.70;99.90
324;DHT22;149;51.094;17.002;2023-05-16T12:43:14;19.70;99.90
324;DHT22;149;51.094;17.002;2023-05-16T12:45:41;19.70;99.90
324;DHT22;149;51.094;17.002;2023-05-16T12:48:14;19.80;99.90
324;DHT22;149;51.094;17.002;2023-05-16T12:50:42;19.50;99.90
324;DHT22;149;51.094;17.002;2023-05-16T12:53:13;19.50;99.90
324;DHT22;149;51.094;17.002;2023-05-16T12:55:41;19.70;99.90
324;DHT22;149;51.094;17.002;2023-05-16T12:58:09;19.50;99.90
324;DHT22;149;51.094;17.002;2023-05-16T13:00:38;19.20;99.90
324;DHT22;149;51.094;17.002;2023-05-16T13:03:05;19.00;99.90
324;DHT22;149;51.094;17.002;2023-05-16T13:05:34;18.60;99.90
324;DHT22;149;51.094;17.002;2023-05-16T13:08:02;18.30;99.90
324;DHT22;149;51.094;17.002;2023-05-16T13:10:29;18.10;99.90
324;DHT22;149;51.094;17.002;2023-05-16T13:12:58;18.00;99.90
324;DHT22;149;51.094;17.002;2023-05-16T13:15:26;17.80;99.90
324;DHT22;149;51.094;17.002;2023-05-16T13:17:54;17.70;99.90
324;DHT22;149;51.094;17.002;2023-05-16T13:20:21;17.60;99.90
324;DHT22;149;51.094;17.002;2023-05-16T13:22:48;17.50;99.90
324;DHT22;149;51.094;17.002;2023-05-16T13:25:15;17.40;99.90
324;DHT22;149;51.094;17.002;2023-05-16T13:27:43;17.50;99.90
324;DHT22;149;51.094;17.002;2023-05-16T13:30:10;17.40;99.90
324;DHT22;149;51.094;17.002;2023-05-16T13:32:37;17.40;99.90
324;DHT22;149;51.094;17.002;2023-05-16T13:35:04;17.50;99.90
324;DHT22;149;51.094;17.002;2023-05-16T13:37:32;17.50;99.90
324;DHT22;149;51.094;17.002;2023-05-16T13:39:59;17.50;99.90
324;DHT22;149;51.094;17.002;2023-05-16T13:42:26;17.40;99.90
324;DHT22;149;51.094;17.002;2023-05-16T13:44:53;17.40;99.90
324;DHT22;149;51.094;17.002;2023-05-16T13:47:20;17.30;99.90
324;DHT22;149;51.094;17.002;2023-05-16T13:49:47;17.10;99.90
324;DHT22;149;51.094;17.002;2023-05-16T13:52:14;17.00;99.90
324;DHT22;149;51.094;17.002;2023-05-16T13:54:41;16.90;99.90
324;DHT22;149;51.094;17.002;2023-05-16T13:57:08;17.00;99.90
324;DHT22;149;51.094;17.002;2023-05-16T13:59:35;16.80;99.90
324;DHT22;149;51.094;17.002;2023-05-16T14:02:22;16.90;99.90
324;DHT22;149;51.094;17.002;2023-05-16T14:04:52;16.80;99.90
324;DHT22;149;51.094;17.002;2023-05-16T14:07:21;16.80;99.90
324;DHT22;149;51.094;17.002;2023-05-16T14:09:48;16.90;99.90
324;DHT22;149;51.094;17.002;2023-05-16T14:12:15;16.60;99.90
324;DHT22;149;51.094;17.002;2023-05-16T14:14:41;16.50;99.90
324;DHT22;149;51.094;17.002;2023-05-16T14:17:08;16.40;99.90
324;DHT22;149;51.094;17.002;2023-05-16T14:19:35;16.10;99.90
324;DHT22;149;51.094;17.002;2023-05-16T14:22:02;15.80;99.90
324;DHT22;149;51.094;17.002;2023-05-16T14:24:30;15.70;99.90
324;DHT22;149;51.094;17.002;2023-05-16T14:26:57;15.70;99.90
324;DHT22;149;51.094;17.002;2023-05-16T14:29:24;15.80;99.90
324;DHT22;149;51.094;17.002;2023-05-16T14:31:51;15.50;99.90
324;DHT22;149;51.094;17.002;2023-05-16T14:34:19;15.50;99.90
324;DHT22;149;51.094;17.002;2023-05-16T14:36:48;15.50;99.90
324;DHT22;149;51.094;17.002;2023-05-16T14:39:15;15.50;99.90
324;DHT22;149;51.094;17.002;2023-05-16T14:41:42;15.50;99.90
324;DHT22;149;51.094;17.002;2023-05-16T14:44:09;15.30;99.90
324;DHT22;149;51.094;17.002;2023-05-16T14:46:36;15.20;99.90
324;DHT22;149;51.094;17.002;2023-05-16T14:49:03;15.00;99.90
324;DHT22;149;51.094;17.002;2023-05-16T14:51:30;15.00;99.90
324;DHT22;149;51.094;17.002;2023-05-16T14:53:58;15.20;99.90
324;DHT22;149;51.094;17.002;2023-05-16T14:56:24;15.20;99.90
324;DHT22;149;51.094;17.002;2023-05-16T14:58:52;15.20;99.90
324;DHT22;149;51.094;17.002;2023-05-16T15:01:20;15.20;99.90
324;DHT22;149;51.094;17.002;2023-05-16T15:03:47;15.20;99.90
324;DHT22;149;51.094;17.002;2023-05-16T15:06:22;15.30;99.90
324;DHT22;149;51.094;17.002;2023-05-16T15:08:50;15.30;99.90
324;DHT22;149;51.094;17.002;2023-05-16T15:11:18;15.20;99.90
324;DHT22;149;51.094;17.002;2023-05-16T15:13:45;15.10;99.90
324;DHT22;149;51.094;17.002;2023-05-16T15:16:12;15.10;99.90
324;DHT22;149;51.094;17.002;2023-05-16T15:18:40;15.10;99.90
324;DHT22;149;51.094;17.002;2023-05-16T15:21:07;15.10;99.90
324;DHT22;149;51.094;17.002;2023-05-16T15:23:34;15.10;99.90
324;DHT22;149;51.094;17.002;2023-05-16T15:26:02;15.10;99.90
324;DHT22;149;51.094;17.002;2023-05-16T15:28:30;14.90;99.90
324;DHT22;149;51.094;17.002;2023-05-16T15:30:57;14.80;99.90
324;DHT22;149;51.094;17.002;2023-05-16T15:33:25;14.60;99.90
324;DHT22;149;51.094;17.002;2023-05-16T15:35:52;14.60;99.90
324;DHT22;149;51.094;17.002;2023-05-16T15:38:19;14.90;99.90
324;DHT22;149;51.094;17.002;2023-05-16T15:40:46;15.00;99.90
324;DHT22;149;51.094;17.002;2023-05-16T15:43:23;15.00;99.90
324;DHT22;149;51.094;17.002;2023-05-16T15:45:50;14.70;99.90
324;DHT22;149;51.094;17.002;2023-05-16T15:48:17;14.60;99.90
324;DHT22;149;51.094;17.002;2023-05-16T15:50:44;14.40;99.90
324;DHT22;149;51.094;17.002;2023-05-16T15:53:11;14.30;99.90
324;DHT22;149;51.094;17.002;2023-05-16T15:55:38;14.30;99.90
324;DHT22;149;51.094;17.002;2023-05-16T15:58:05;14.40;99.90
324;DHT22;149;51.094;17.002;2023-05-16T16:00:32;14.30;99.90
324;DHT22;149;51.094;17.002;2023-05-16T16:03:00;14.20;99.90
324;DHT22;149;51.094;17.002;2023-05-16T16:05:28;14.20;99.90
324;DHT22;149;51.094;17.002;2023-05-16T16:07:58;14.20;99.90
324;DHT22;149;51.094;17.002;2023-05-16T16:10:25;14.20;99.90
324;DHT22;149;51.094;17.002;2023-05-16T16:13:03;14.10;99.90
324;DHT22;149;51.094;17.002;2023-05-16T16:15:31;14.10;99.90
324;DHT22;149;51.094;17.002;2023-05-16T16:17:59;14.00;99.90
324;DHT22;149;51.094;17.002;2023-05-16T16:20:27;14.00;99.90
324;DHT22;149;51.094;17.002;2023-05-16T16:22:54;14.00;99.90
324;DHT22;149;51.094;17.002;2023-05-16T16:25:22;14.00;99.90
324;DHT22;149;51.094;17.002;2023-05-16T16:27:49;14.00;99.90
324;DHT22;149;51.094;17.002;2023-05-16T16:30:16;14.10;99.90
324;DHT22;149;51.094;17.002;2023-05-16T16:32:43;14.10;99.90
324;DHT22;149;51.094;17.002;2023-05-16T16:35:10;13.90;99.90
324;DHT22;149;51.094;17.002;2023-05-16T16:37:37;13.90;99.90
324;DHT22;149;51.094;17.002;2023-05-16T16:40:06;13.90;99.90
324;DHT22;149;51.094;17.002;2023-05-16T16:42:33;13.80;99.90
324;DHT22;149;51.094;17.002;2023-05-16T16:45:04;13.70;99.90
324;DHT22;149;51.094;17.002;2023-05-16T16:47:31;13.60;99.90
324;DHT22;149;51.094;17.002;2023-05-16T16:50:01;13.60;99.90
324;DHT22;149;51.094;17.002;2023-05-16T16:52:29;13.50;99.90
324;DHT22;149;51.094;17.002;2023-05-16T16:54:56;13.50;99.90
324;DHT22;149;51.094;17.002;2023-05-16T16:57:23;13.50;99.90